sensor_id;sensor_type;location;lat;lon;timestamp;pressure;altitude;pressure_sealevel;temperature;humidity
40850;BME280;26571;41.610;25.380;2022-11-15T00:01:17;99029.88;;;4.82;84.90
40850;BME280;26571;41.610;25.380;2022-11-15T00:03:42;99057.22;;;5.00;84.77
40850;BME280;26571;41.610;25.380;2022-11-15T00:06:08;99038.44;;;4.84;85.03
40850;BME280;26571;41.610;25.380;2022-11-15T00:08:34;99058.66;;;5.04;85.42
40850;BME280;26571;41.610;25.380;2022-11-15T00:11:01;99062.56;;;5.10;85.83
40850;BME280;26571;41.610;25.380;2022-11-15T00:13:28;99050.81;;;5.15;85.90
40850;BME280;26571;41.610;25.380;2022-11-15T00:15:57;99056.03;;;5.15;86.03
40850;BME280;26571;41.610;25.380;2022-11-15T00:18:23;99057.22;;;5.11;86.24
40850;BME280;26571;41.610;25.380;2022-11-15T00:20:49;99055.34;;;5.13;86.64
40850;BME280;26571;41.610;25.380;2022-11-15T00:23:14;99056.78;;;5.17;86.85
40850;BME280;26571;41.610;25.380;2022-11-15T00:25:39;99049.16;;;5.14;87.22
40850;BME280;26571;41.610;25.380;2022-11-15T00:28:05;99055.81;;;5.18;87.64
40850;BME280;26571;41.610;25.380;2022-11-15T00:30:31;99047.88;;;5.20;87.78
40850;BME280;26571;41.610;25.380;2022-11-15T00:32:56;99054.41;;;5.26;87.94
40850;BME280;26571;41.610;25.380;2022-11-15T00:35:22;99061.41;;;5.25;88.36
40850;BME280;26571;41.610;25.380;2022-11-15T00:37:48;99046.34;;;5.29;88.55
40850;BME280;26571;41.610;25.380;2022-11-15T00:40:14;99050.03;;;5.37;88.62
40850;BME280;26571;41.610;25.380;2022-11-15T00:42:40;99049.56;;;5.43;88.73
40850;BME280;26571;41.610;25.380;2022-11-15T00:45:06;99045.41;;;5.52;88.39
40850;BME280;26571;41.610;25.380;2022-11-15T00:47:31;98989.41;;;5.23;88.30
40850;BME280;26571;41.610;25.380;2022-11-15T00:49:57;99033.75;;;5.56;88.64
40850;BME280;26571;41.610;25.380;2022-11-15T00:52:23;99035.44;;;5.57;88.85
40850;BME280;26571;41.610;25.380;2022-11-15T00:54:48;99029.94;;;5.60;88.99
40850;BME280;26571;41.610;25.380;2022-11-15T00:57:14;99028.28;;;5.59;89.48
40850;BME280;26571;41.610;25.380;2022-11-15T00:59:39;99029.34;;;5.57;89.84
40850;BME280;26571;41.610;25.380;2022-11-15T01:02:04;99028.66;;;5.55;90.18
40850;BME280;26571;41.610;25.380;2022-11-15T01:04:30;99028.53;;;5.56;90.63
40850;BME280;26571;41.610;25.380;2022-11-15T01:06:55;99018.91;;;5.57;91.16
40850;BME280;26571;41.610;25.380;2022-11-15T01:09:21;99020.22;;;5.62;91.57
40850;BME280;26571;41.610;25.380;2022-11-15T01:11:46;99012.13;;;5.65;91.76
40850;BME280;26571;41.610;25.380;2022-11-15T01:14:11;99016.31;;;5.68;91.67
40850;BME280;26571;41.610;25.380;2022-11-15T01:16:37;99011.06;;;5.68;91.69
40850;BME280;26571;41.610;25.380;2022-11-15T01:19:03;98998.59;;;5.60;91.75
40850;BME280;26571;41.610;25.380;2022-11-15T01:21:28;99028.16;;;5.72;92.33
40850;BME280;26571;41.610;25.380;2022-11-15T01:23:55;99005.34;;;5.74;92.18
40850;BME280;26571;41.610;25.380;2022-11-15T01:26:21;99015.81;;;5.74;91.52
40850;BME280;26571;41.610;25.380;2022-11-15T01:28:46;99008.09;;;5.73;90.82
40850;BME280;26571;41.610;25.380;2022-11-15T01:31:18;99009.16;;;5.70;91.62
40850;BME280;26571;41.610;25.380;2022-11-15T01:33:44;99007.16;;;5.74;91.25
40850;BME280;26571;41.610;25.380;2022-11-15T01:36:19;98995.78;;;5.63;91.05
40850;BME280;26571;41.610;25.380;2022-11-15T01:38:47;99009.75;;;5.74;91.52
40850;BME280;26571;41.610;25.380;2022-11-15T01:41:17;99006.69;;;5.68;91.53
40850;BME280;26571;41.610;25.380;2022-11-15T01:43:43;98999.91;;;5.66;91.84
40850;BME280;26571;41.610;25.380;2022-11-15T01:48:47;99009.41;;;5.78;91.56
40850;BME280;26571;41.610;25.380;2022-11-15T01:51:13;99004.16;;;5.78;91.09
40850;BME280;26571;41.610;25.380;2022-11-15T01:53:42;99000.47;;;5.81;91.17
40850;BME280;26571;41.610;25.380;2022-11-15T01:56:12;98996.53;;;5.86;90.78
40850;BME280;26571;41.610;25.380;2022-11-15T01:58:40;98989.06;;;5.82;90.86
40850;BME280;26571;41.610;25.380;2022-11-15T02:01:06;98971.06;;;5.67;90.35
40850;BME280;26571;41.610;25.380;2022-11-15T02:03:39;98996.53;;;5.86;90.27
40850;BME280;26571;41.610;25.380;2022-11-15T02:06:07;98999.16;;;5.86;90.33
40850;BME280;26571;41.610;25.380;2022-11-15T02:08:33;98998.81;;;5.80;90.49
40850;BME280;26571;41.610;25.380;2022-11-15T02:10:58;98993.13;;;5.75;91.05
40850;BME280;26571;41.610;25.380;2022-11-15T02:13:24;99000.59;;;5.79;91.23
40850;BME280;26571;41.610;25.380;2022-11-15T02:18:26;98997.41;;;5.87;90.59
40850;BME280;26571;41.610;25.380;2022-11-15T02:29:07;98982.75;;;5.95;90.72
40850;BME280;26571;41.610;25.380;2022-11-15T02:42:01;98989.28;;;5.90;90.40
40850;BME280;26571;41.610;25.380;2022-11-15T02:44:37;98986.81;;;5.88;90.92
40850;BME280;26571;41.610;25.380;2022-11-15T02:47:06;98972.00;;;5.78;91.09
40850;BME280;26571;41.610;25.380;2022-11-15T02:49:46;98988.00;;;5.95;91.08
40850;BME280;26571;41.610;25.380;2022-11-15T02:52:21;98983.13;;;6.02;90.68
40850;BME280;26571;41.610;25.380;2022-11-15T02:54:57;98979.28;;;6.06;90.52
40850;BME280;26571;41.610;25.380;2022-11-15T03:05:38;98987.56;;;6.11;89.98
40850;BME280;26571;41.610;25.380;2022-11-15T03:08:08;98984.59;;;6.16;89.54
40850;BME280;26571;41.610;25.380;2022-11-15T03:15:43;98984.94;;;6.22;88.94
40850;BME280;26571;41.610;25.380;2022-11-15T03:18:15;98982.19;;;6.24;88.62
40850;BME280;26571;41.610;25.380;2022-11-15T03:20:42;98976.84;;;6.26;88.55
40850;BME280;26571;41.610;25.380;2022-11-15T03:23:10;98982.06;;;6.26;88.17
40850;BME280;26571;41.610;25.380;2022-11-15T03:25:36;98982.72;;;6.18;88.73
40850;BME280;26571;41.610;25.380;2022-11-15T03:28:05;98949.13;;;5.91;89.07
40850;BME280;26571;41.610;25.380;2022-11-15T03:30:34;98986.19;;;6.07;89.95
40850;BME280;26571;41.610;25.380;2022-11-15T03:33:03;98901.75;;;5.63;90.37
40850;BME280;26571;41.610;25.380;2022-11-15T03:35:35;98968.81;;;6.06;90.47
40850;BME280;26571;41.610;25.380;2022-11-15T03:40:45;98966.34;;;6.05;90.96
40850;BME280;26571;41.610;25.380;2022-11-15T03:43:29;98965.38;;;6.06;90.60
40850;BME280;26571;41.610;25.380;2022-11-15T03:46:06;98962.22;;;6.02;91.00
40850;BME280;26571;41.610;25.380;2022-11-15T03:48:46;98963.59;;;6.06;90.96
40850;BME280;26571;41.610;25.380;2022-11-15T03:51:15;98953.16;;;6.06;90.95
40850;BME280;26571;41.610;25.380;2022-11-15T03:53:40;98955.75;;;6.06;91.50
40850;BME280;26571;41.610;25.380;2022-11-15T03:56:06;98949.09;;;6.13;91.59
40850;BME280;26571;41.610;25.380;2022-11-15T03:58:31;98951.34;;;6.18;90.89
40850;BME280;26571;41.610;25.380;2022-11-15T04:00:57;98957.00;;;6.23;90.97
40850;BME280;26571;41.610;25.380;2022-11-15T04:03:24;98955.81;;;6.27;90.61
40850;BME280;26571;41.610;25.380;2022-11-15T04:05:50;98952.81;;;6.32;90.45
40850;BME280;26571;41.610;25.380;2022-11-15T04:08:15;98947.84;;;6.29;90.48
40850;BME280;26571;41.610;25.380;2022-11-15T04:10:40;98952.94;;;6.30;90.67
40850;BME280;26571;41.610;25.380;2022-11-15T04:13:06;98955.81;;;6.27;91.05
40850;BME280;26571;41.610;25.380;2022-11-15T04:15:31;98952.69;;;6.33;90.74
40850;BME280;26571;41.610;25.380;2022-11-15T04:17:57;98948.41;;;6.32;90.84
40850;BME280;26571;41.610;25.380;2022-11-15T04:20:28;98948.72;;;6.39;90.19
40850;BME280;26571;41.610;25.380;2022-11-15T04:23:13;98949.56;;;6.39;90.24
40850;BME280;26571;41.610;25.380;2022-11-15T04:26:03;98944.31;;;6.39;90.21
40850;BME280;26571;41.610;25.380;2022-11-15T04:28:29;98943.94;;;6.44;89.57
40850;BME280;26571;41.610;25.380;2022-11-15T04:30:55;98941.34;;;6.44;90.12
40850;BME280;26571;41.610;25.380;2022-11-15T04:33:21;98941.34;;;6.44;89.90
40850;BME280;26571;41.610;25.380;2022-11-15T04:35:47;98938.97;;;6.41;89.34
40850;BME280;26571;41.610;25.380;2022-11-15T04:38:32;98913.16;;;6.27;89.49
40850;BME280;26571;41.610;25.380;2022-11-15T04:40:58;98926.16;;;6.38;89.46
40850;BME280;26571;41.610;25.380;2022-11-15T04:43:23;98939.47;;;6.35;89.18
40850;BME280;26571;41.610;25.380;2022-11-15T04:45:49;98934.56;;;6.20;90.25
40850;BME280;26571;41.610;25.380;2022-11-15T04:48:14;98937.16;;;6.20;90.72
40850;BME280;26571;41.610;25.380;2022-11-15T04:50:40;98929.09;;;6.24;90.70
40850;BME280;26571;41.610;25.380;2022-11-15T04:53:05;98938.13;;;6.19;90.68
40850;BME280;26571;41.610;25.380;2022-11-15T04:55:31;98932.91;;;6.19;91.05
40850;BME280;26571;41.610;25.380;2022-11-15T04:58:01;98933.72;;;6.20;91.07
40850;BME280;26571;41.610;25.380;2022-11-15T05:00:28;98927.69;;;6.19;91.26
40850;BME280;26571;41.610;25.380;2022-11-15T05:02:54;98913.84;;;6.08;91.60
40850;BME280;26571;41.610;25.380;2022-11-15T05:05:38;98923.84;;;6.24;91.19
40850;BME280;26571;41.610;25.380;2022-11-15T05:08:04;98922.19;;;6.22;91.06
40850;BME280;26571;41.610;25.380;2022-11-15T05:10:30;98930.75;;;6.25;91.41
40850;BME280;26571;41.610;25.380;2022-11-15T05:12:55;98899.22;;;6.05;91.56
40850;BME280;26571;41.610;25.380;2022-11-15T05:15:21;98928.84;;;6.27;91.91
40850;BME280;26571;41.610;25.380;2022-11-15T05:17:46;98929.97;;;6.34;91.24
40850;BME280;26571;41.610;25.380;2022-11-15T05:20:12;98929.59;;;6.38;90.76
40850;BME280;26571;41.610;25.380;2022-11-15T05:22:37;98926.84;;;6.40;91.08
40850;BME280;26571;41.610;25.380;2022-11-15T05:25:03;98935.66;;;6.39;90.76
40850;BME280;26571;41.610;25.380;2022-11-15T05:27:29;98935.66;;;6.39;90.95
40850;BME280;26571;41.610;25.380;2022-11-15T05:29:54;98919.59;;;6.22;91.27
40850;BME280;26571;41.610;25.380;2022-11-15T05:32:20;98901.22;;;6.13;91.54
40850;BME280;26571;41.610;25.380;2022-11-15T05:34:46;98938.41;;;6.37;91.66
40850;BME280;26571;41.610;25.380;2022-11-15T05:37:12;98903.94;;;6.11;91.74
40850;BME280;26571;41.610;25.380;2022-11-15T05:39:37;98943.00;;;6.45;91.71
40850;BME280;26571;41.610;25.380;2022-11-15T05:42:10;98951.28;;;6.50;91.06
40850;BME280;26571;41.610;25.380;2022-11-15T05:44:38;98955.69;;;6.50;91.43
40850;BME280;26571;41.610;25.380;2022-11-15T05:47:09;98951.72;;;6.55;91.20
40850;BME280;26571;41.610;25.380;2022-11-15T05:49:38;98948.88;;;6.58;90.33
40850;BME280;26571;41.610;25.380;2022-11-15T05:52:07;98937.06;;;6.43;90.64
40850;BME280;26571;41.610;25.380;2022-11-15T05:54:35;98942.41;;;6.62;90.40
40850;BME280;26571;41.610;25.380;2022-11-15T05:57:01;98945.72;;;6.64;90.51
40850;BME280;26571;41.610;25.380;2022-11-15T05:59:29;98946.69;;;6.63;90.19
40850;BME280;26571;41.610;25.380;2022-11-15T06:01:55;98896.94;;;6.33;90.45
40850;BME280;26571;41.610;25.380;2022-11-15T06:04:21;98956.19;;;6.64;90.38
40850;BME280;26571;41.610;25.380;2022-11-15T06:06:46;98951.19;;;6.61;90.66
40850;BME280;26571;41.610;25.380;2022-11-15T06:09:12;98960.00;;;6.60;90.35
40850;BME280;26571;41.610;25.380;2022-11-15T06:11:37;98958.75;;;6.55;90.55
40850;BME280;26571;41.610;25.380;2022-11-15T06:14:03;98963.72;;;6.58;91.26
40850;BME280;26571;41.610;25.380;2022-11-15T06:16:28;98950.50;;;6.59;91.19
40850;BME280;26571;41.610;25.380;2022-11-15T06:18:53;98960.16;;;6.59;92.04
40850;BME280;26571;41.610;25.380;2022-11-15T06:21:19;98946.94;;;6.60;92.31
40850;BME280;26571;41.610;25.380;2022-11-15T06:23:44;98955.56;;;6.72;92.03
40850;BME280;26571;41.610;25.380;2022-11-15T06:26:09;98958.91;;;6.84;90.68
40850;BME280;26571;41.610;25.380;2022-11-15T06:28:35;98960.03;;;6.91;90.44
40850;BME280;26571;41.610;25.380;2022-11-15T06:31:08;98961.44;;;6.95;90.33
40850;BME280;26571;41.610;25.380;2022-11-15T06:33:34;98905.41;;;6.67;90.21
40850;BME280;26571;41.610;25.380;2022-11-15T06:36:02;98965.22;;;7.02;89.54
40850;BME280;26571;41.610;25.380;2022-11-15T06:38:28;98924.06;;;6.83;89.62
40850;BME280;26571;41.610;25.380;2022-11-15T06:40:53;98943.84;;;6.97;89.43
40850;BME280;26571;41.610;25.380;2022-11-15T06:43:19;98933.50;;;6.95;89.84
40850;BME280;26571;41.610;25.380;2022-11-15T06:45:44;98952.44;;;7.09;90.31
40850;BME280;26571;41.610;25.380;2022-11-15T06:48:10;98954.66;;;7.13;89.97
40850;BME280;26571;41.610;25.380;2022-11-15T06:50:35;98959.34;;;7.19;89.61
40850;BME280;26571;41.610;25.380;2022-11-15T06:53:02;98952.75;;;7.25;nan
40850;BME280;26571;41.610;25.380;2022-11-15T06:55:28;98951.69;;;7.28;89.05
40850;BME280;26571;41.610;25.380;2022-11-15T06:57:53;98944.78;;;7.27;88.73
40850;BME280;26571;41.610;25.380;2022-11-15T07:00:20;98944.41;;;7.31;88.72
40850;BME280;26571;41.610;25.380;2022-11-15T07:02:46;98945.91;;;7.34;89.06
40850;BME280;26571;41.610;25.380;2022-11-15T07:05:13;98943.28;;;7.34;89.03
40850;BME280;26571;41.610;25.380;2022-11-15T07:07:39;98937.09;;;7.35;88.73
40850;BME280;26571;41.610;25.380;2022-11-15T07:10:05;98939.28;;;7.30;89.99
40850;BME280;26571;41.610;25.380;2022-11-15T07:12:31;98938.22;;;7.42;89.35
40850;BME280;26571;41.610;25.380;2022-11-15T07:14:56;98934.09;;;7.49;89.10
40850;BME280;26571;41.610;25.380;2022-11-15T07:17:22;98928.72;;;7.50;89.50
40850;BME280;26571;41.610;25.380;2022-11-15T07:19:47;98933.16;;;7.60;89.00
40850;BME280;26571;41.610;25.380;2022-11-15T07:22:12;98795.03;;;6.83;88.17
40850;BME280;26571;41.610;25.380;2022-11-15T07:24:38;98933.16;;;7.69;88.39
40850;BME280;26571;41.610;25.380;2022-11-15T07:27:03;98932.47;;;7.67;88.17
40850;BME280;26571;41.610;25.380;2022-11-15T07:29:29;98936.75;;;7.68;89.53
40850;BME280;26571;41.610;25.380;2022-11-15T07:31:54;98933.59;;;7.74;89.33
40850;BME280;26571;41.610;25.380;2022-11-15T07:34:20;98933.19;;;7.79;89.34
40850;BME280;26571;41.610;25.380;2022-11-15T07:36:45;98935.38;;;7.84;89.37
40850;BME280;26571;41.610;25.380;2022-11-15T07:39:10;98843.94;;;7.42;88.87
40850;BME280;26571;41.610;25.380;2022-11-15T07:41:37;98929.50;;;8.01;88.52
40850;BME280;26571;41.610;25.380;2022-11-15T07:44:04;98802.41;;;7.28;87.81
40850;BME280;26571;41.610;25.380;2022-11-15T07:46:29;98931.56;;;8.07;88.05
40850;BME280;26571;41.610;25.380;2022-11-15T07:48:55;98925.59;;;8.05;87.58
40850;BME280;26571;41.610;25.380;2022-11-15T07:51:20;98933.47;;;8.05;87.14
40850;BME280;26571;41.610;25.380;2022-11-15T07:53:45;98935.16;;;8.06;87.98
40850;BME280;26571;41.610;25.380;2022-11-15T07:56:11;98938.28;;;8.10;88.07
40850;BME280;26571;41.610;25.380;2022-11-15T07:58:37;98937.47;;;8.09;88.09
40850;BME280;26571;41.610;25.380;2022-11-15T08:01:06;98937.22;;;8.12;88.00
40850;BME280;26571;41.610;25.380;2022-11-15T08:03:32;98941.47;;;8.13;88.48
40850;BME280;26571;41.610;25.380;2022-11-15T08:05:58;98940.25;;;8.17;87.84
40850;BME280;26571;41.610;25.380;2022-11-15T08:08:23;98934.44;;;8.23;87.72
40850;BME280;26571;41.610;25.380;2022-11-15T08:10:49;98934.44;;;8.33;87.27
40850;BME280;26571;41.610;25.380;2022-11-15T08:13:14;98942.75;;;8.38;87.04
40850;BME280;26571;41.610;25.380;2022-11-15T08:15:40;98943.84;;;8.36;87.40
40850;BME280;26571;41.610;25.380;2022-11-15T08:18:10;98939.44;;;8.36;87.12
40850;BME280;26571;41.610;25.380;2022-11-15T08:20:36;98940.66;;;8.42;87.33
40850;BME280;26571;41.610;25.380;2022-11-15T08:23:03;98942.88;;;8.46;87.08
40850;BME280;26571;41.610;25.380;2022-11-15T08:25:31;98944.94;;;8.52;87.33
40850;BME280;26571;41.610;25.380;2022-11-15T08:27:59;98934.03;;;8.57;87.32
40850;BME280;26571;41.610;25.380;2022-11-15T08:30:25;98916.50;;;8.48;87.50
40850;BME280;26571;41.610;25.380;2022-11-15T08:32:52;98928.78;;;8.57;87.62
40850;BME280;26571;41.610;25.380;2022-11-15T08:35:19;98915.34;;;8.60;87.22
40850;BME280;26571;41.610;25.380;2022-11-15T08:37:44;98896.06;;;8.51;87.42
40850;BME280;26571;41.610;25.380;2022-11-15T08:40:10;98920.31;;;8.73;86.68
40850;BME280;26571;41.610;25.380;2022-11-15T08:42:36;98924.84;;;8.80;87.40
40850;BME280;26571;41.610;25.380;2022-11-15T08:45:02;98922.47;;;8.87;86.74
40850;BME280;26571;41.610;25.380;2022-11-15T08:47:28;98898.19;;;8.75;86.69
40850;BME280;26571;41.610;25.380;2022-11-15T08:49:53;98915.22;;;8.99;86.50
40850;BME280;26571;41.610;25.380;2022-11-15T08:52:19;98893.16;;;8.92;86.52
40850;BME280;26571;41.610;25.380;2022-11-15T08:54:44;98904.59;;;9.00;86.16
40850;BME280;26571;41.610;25.380;2022-11-15T08:57:09;98900.25;;;9.09;86.69
40850;BME280;26571;41.610;25.380;2022-11-15T08:59:36;98895.72;;;9.11;86.80
40850;BME280;26571;41.610;25.380;2022-11-15T09:02:02;98897.31;;;9.22;86.07
40850;BME280;26571;41.610;25.380;2022-11-15T09:04:27;98897.03;;;9.25;85.08
40850;BME280;26571;41.610;25.380;2022-11-15T09:06:53;98890.53;;;9.19;85.40
40850;BME280;26571;41.610;25.380;2022-11-15T09:09:18;98889.06;;;9.35;85.04
40850;BME280;26571;41.610;25.380;2022-11-15T09:11:44;98883.25;;;9.41;84.41
40850;BME280;26571;41.610;25.380;2022-11-15T09:14:13;98830.72;;;9.13;84.28
40850;BME280;26571;41.610;25.380;2022-11-15T09:16:39;98839.69;;;9.20;84.57
40850;BME280;26571;41.610;25.380;2022-11-15T09:19:05;98873.50;;;9.51;84.63
40850;BME280;26571;41.610;25.380;2022-11-15T09:21:30;98865.28;;;9.54;83.95
40850;BME280;26571;41.610;25.380;2022-11-15T09:23:56;98855.75;;;9.53;84.45
40850;BME280;26571;41.610;25.380;2022-11-15T09:26:22;98862.16;;;9.68;83.21
40850;BME280;26571;41.610;25.380;2022-11-15T09:28:47;98857.13;;;9.75;82.74
40850;BME280;26571;41.610;25.380;2022-11-15T09:31:13;98855.84;;;9.79;82.23
40850;BME280;26571;41.610;25.380;2022-11-15T09:33:38;98831.31;;;9.70;81.42
40850;BME280;26571;41.610;25.380;2022-11-15T09:36:07;98855.56;;;9.82;81.11
40850;BME280;26571;41.610;25.380;2022-11-15T09:38:33;98843.91;;;9.84;81.25
40850;BME280;26571;41.610;25.380;2022-11-15T09:46:37;98827.94;;;10.04;80.23
40850;BME280;26571;41.610;25.380;2022-11-15T09:49:04;98825.19;;;10.05;80.19
40850;BME280;26571;41.610;25.380;2022-11-15T09:51:41;98823.66;;;10.03;80.68
40850;BME280;26571;41.610;25.380;2022-11-15T10:00:09;98807.91;;;10.29;79.77
40850;BME280;26571;41.610;25.380;2022-11-15T10:03:03;98791.47;;;10.27;78.56
40850;BME280;26571;41.610;25.380;2022-11-15T10:05:30;98797.63;;;10.44;78.89
40850;BME280;26571;41.610;25.380;2022-11-15T10:10:56;98798.97;;;10.48;77.74
40850;BME280;26571;41.610;25.380;2022-11-15T10:15:50;98802.50;;;10.56;77.93
40850;BME280;26571;41.610;25.380;2022-11-15T10:18:20;98784.25;;;10.63;78.06
40850;BME280;26571;41.610;25.380;2022-11-15T10:20:59;98772.59;;;10.74;78.25
40850;BME280;26571;41.610;25.380;2022-11-15T10:23:26;98776.97;;;10.91;77.46
40850;BME280;26571;41.610;25.380;2022-11-15T10:25:57;98778.16;;;11.05;77.16
40850;BME280;26571;41.610;25.380;2022-11-15T10:28:30;98768.13;;;11.17;76.47
40850;BME280;26571;41.610;25.380;2022-11-15T10:31:00;98762.06;;;11.32;75.53
40850;BME280;26571;41.610;25.380;2022-11-15T10:33:31;98759.25;;;11.42;76.09
40850;BME280;26571;41.610;25.380;2022-11-15T10:36:18;98761.09;;;11.58;74.97
40850;BME280;26571;41.610;25.380;2022-11-15T10:41:29;98752.03;;;11.77;73.98
40850;BME280;26571;41.610;25.380;2022-11-15T10:44:10;98752.19;;;11.92;71.30
40850;BME280;26571;41.610;25.380;2022-11-15T10:46:38;98749.38;;;11.93;69.77
40850;BME280;26571;41.610;25.380;2022-11-15T10:51:49;98743.28;;;12.09;70.34
40850;BME280;26571;41.610;25.380;2022-11-15T10:54:24;98747.69;;;12.25;69.30
40850;BME280;26571;41.610;25.380;2022-11-15T10:56:54;98739.09;;;12.31;67.80
40850;BME280;26571;41.610;25.380;2022-11-15T10:59:26;98745.88;;;12.33;66.80
40850;BME280;26571;41.610;25.380;2022-11-15T11:01:53;98735.31;;;12.33;67.71
40850;BME280;26571;41.610;25.380;2022-11-15T11:04:19;98727.97;;;12.52;67.48
40850;BME280;26571;41.610;25.380;2022-11-15T11:06:52;98724.72;;;12.73;67.89
40850;BME280;26571;41.610;25.380;2022-11-15T11:09:38;98714.94;;;12.81;66.70
40850;BME280;26571;41.610;25.380;2022-11-15T11:12:09;98717.41;;;12.83;66.36
40850;BME280;26571;41.610;25.380;2022-11-15T11:14:36;98715.25;;;12.86;64.01
40850;BME280;26571;41.610;25.380;2022-11-15T11:20:10;98713.59;;;12.85;62.64
40850;BME280;26571;41.610;25.380;2022-11-15T11:33:23;98696.50;;;13.50;60.17
40850;BME280;26571;41.610;25.380;2022-11-15T11:38:34;98688.28;;;13.45;60.08
40850;BME280;26571;41.610;25.380;2022-11-15T11:49:18;98665.53;;;13.36;60.76
40850;BME280;26571;41.610;25.380;2022-11-15T11:51:56;98658.31;;;13.53;60.23
40850;BME280;26571;41.610;25.380;2022-11-15T11:54:26;98656.84;;;13.65;60.19
40850;BME280;26571;41.610;25.380;2022-11-15T11:56:58;98639.81;;;13.67;59.57
40850;BME280;26571;41.610;25.380;2022-11-15T12:05:37;98655.75;;;13.59;58.48
40850;BME280;26571;41.610;25.380;2022-11-15T12:10:41;98643.50;;;13.43;59.38
40850;BME280;26571;41.610;25.380;2022-11-15T12:13:16;98640.84;;;13.43;60.40
40850;BME280;26571;41.610;25.380;2022-11-15T12:15:57;98637.50;;;13.27;60.36
40850;BME280;26571;41.610;25.380;2022-11-15T12:18:24;98630.31;;;13.12;60.48
40850;BME280;26571;41.610;25.380;2022-11-15T12:21:15;98629.50;;;13.12;60.26
40850;BME280;26571;41.610;25.380;2022-11-15T12:23:57;98615.41;;;12.97;60.52
40850;BME280;26571;41.610;25.380;2022-11-15T12:26:27;98617.25;;;12.96;60.71
40850;BME280;26571;41.610;25.380;2022-11-15T12:28:59;98619.59;;;12.91;61.57
40850;BME280;26571;41.610;25.380;2022-11-15T12:33:58;98614.84;;;12.86;62.46
40850;BME280;26571;41.610;25.380;2022-11-15T12:39:08;98611.16;;;12.96;61.39
40850;BME280;26571;41.610;25.380;2022-11-15T12:41:36;98623.53;;;12.95;61.00
40850;BME280;26571;41.610;25.380;2022-11-15T12:44:02;98614.50;;;12.89;61.28
40850;BME280;26571;41.610;25.380;2022-11-15T12:49:42;98601.81;;;12.85;60.48
40850;BME280;26571;41.610;25.380;2022-11-15T12:59:48;98590.19;;;12.94;60.66
40850;BME280;26571;41.610;25.380;2022-11-15T13:02:42;98593.13;;;12.99;60.38
40850;BME280;26571;41.610;25.380;2022-11-15T13:20:19;98543.59;;;12.55;62.76
40850;BME280;26571;41.610;25.380;2022-11-15T13:22:46;98558.00;;;12.67;63.86
40850;BME280;26571;41.610;25.380;2022-11-15T13:25:44;98554.41;;;12.68;63.07
40850;BME280;26571;41.610;25.380;2022-11-15T13:33:22;98542.34;;;12.66;63.93
40850;BME280;26571;41.610;25.380;2022-11-15T13:35:55;98542.88;;;12.61;63.61
40850;BME280;26571;41.610;25.380;2022-11-15T13:40:50;98523.03;;;12.42;63.36
40850;BME280;26571;41.610;25.380;2022-11-15T13:48:30;98509.53;;;12.37;64.05
40850;BME280;26571;41.610;25.380;2022-11-15T13:50:56;98524.34;;;12.47;63.80
40850;BME280;26571;41.610;25.380;2022-11-15T13:53:23;98530.63;;;12.46;63.52
40850;BME280;26571;41.610;25.380;2022-11-15T13:55:48;98523.75;;;12.36;63.79
40850;BME280;26571;41.610;25.380;2022-11-15T13:58:14;98527.09;;;12.30;64.34
40850;BME280;26571;41.610;25.380;2022-11-15T14:00:44;98526.09;;;12.08;64.38
40850;BME280;26571;41.610;25.380;2022-11-15T14:03:23;98523.03;;;12.20;65.05
40850;BME280;26571;41.610;25.380;2022-11-15T14:06:19;98523.75;;;12.13;65.54
40850;BME280;26571;41.610;25.380;2022-11-15T14:09:25;98513.75;;;12.01;65.87
40850;BME280;26571;41.610;25.380;2022-11-15T14:11:55;98515.25;;;11.95;66.56
40850;BME280;26571;41.610;25.380;2022-11-15T14:14:23;98502.09;;;11.87;66.35
40850;BME280;26571;41.610;25.380;2022-11-15T14:16:51;98466.97;;;11.55;67.43
40850;BME280;26571;41.610;25.380;2022-11-15T14:24:33;98450.06;;;11.33;68.00
40850;BME280;26571;41.610;25.380;2022-11-15T14:27:22;98489.25;;;11.45;68.81
40850;BME280;26571;41.610;25.380;2022-11-15T14:29:49;98486.94;;;11.42;69.59
40850;BME280;26571;41.610;25.380;2022-11-15T14:32:23;98484.63;;;11.38;70.43
40850;BME280;26571;41.610;25.380;2022-11-15T14:34:57;98481.19;;;11.38;69.96
40850;BME280;26571;41.610;25.380;2022-11-15T14:37:28;98487.81;;;11.34;69.95
40850;BME280;26571;41.610;25.380;2022-11-15T14:39:56;98503.94;;;11.23;70.21
40850;BME280;26571;41.610;25.380;2022-11-15T14:42:22;98473.00;;;11.17;70.35
40850;BME280;26571;41.610;25.380;2022-11-15T14:44:49;98461.84;;;10.98;70.60
40850;BME280;26571;41.610;25.380;2022-11-15T14:47:15;98490.00;;;11.14;70.83
40850;BME280;26571;41.610;25.380;2022-11-15T14:49:40;98458.13;;;10.84;70.47
40850;BME280;26571;41.610;25.380;2022-11-15T14:52:27;98486.69;;;11.04;71.02
40850;BME280;26571;41.610;25.380;2022-11-15T14:54:56;98481.09;;;10.99;71.25
40850;BME280;26571;41.610;25.380;2022-11-15T14:57:23;98485.41;;;10.92;71.22
40850;BME280;26571;41.610;25.380;2022-11-15T14:59:49;98479.66;;;10.88;71.49
40850;BME280;26571;41.610;25.380;2022-11-15T15:02:18;98481.81;;;10.84;71.21
40850;BME280;26571;41.610;25.380;2022-11-15T15:04:45;98480.50;;;10.80;71.51
40850;BME280;26571;41.610;25.380;2022-11-15T15:07:10;98478.03;;;10.71;71.84
40850;BME280;26571;41.610;25.380;2022-11-15T15:09:36;98440.06;;;10.41;72.43
40850;BME280;26571;41.610;25.380;2022-11-15T15:12:01;98471.13;;;10.53;72.47
40850;BME280;26571;41.610;25.380;2022-11-15T15:14:26;98479.84;;;10.46;72.72
40850;BME280;26571;41.610;25.380;2022-11-15T15:16:52;98477.91;;;10.40;72.72
40850;BME280;26571;41.610;25.380;2022-11-15T15:19:17;98460.09;;;10.33;72.91
40850;BME280;26571;41.610;25.380;2022-11-15T15:21:43;98481.31;;;10.24;73.01
40850;BME280;26571;41.610;25.380;2022-11-15T15:24:15;98474.03;;;10.18;73.33
40850;BME280;26571;41.610;25.380;2022-11-15T15:26:41;98462.34;;;9.96;73.28
40850;BME280;26571;41.610;25.380;2022-11-15T15:29:08;98473.50;;;9.98;73.72